Tropical Cyclones
[Index]
Main Index Home Page Stock Weather Photos Extreme Storms Discussion Storm News and Storm Chasing Reports Tropical Cyclones / Hurricanes / Typhoons Weather Data and Links Wild Fires / Bushfires Weather Observation Techniques Weather Picture Catalogue Tornado Pictures and Reports Stock Video Footage and DVDs for sale
Season 2009-2010 Tropical Cyclone SEAN Track Map
Season 2009-2010 Summaries: [BoM-AU] [JTWC-AU] [JTWC-SIO] [JTWC-SPAC] [JTWC-SH]
<<- Previous TC | JTWC 2009-2010 Season | Next TC ->>

click for intensity scale information  Lat/long Grid: Show Hide

 Date Labels: Show Hide

Joint Typhoon Warning Centre Cyclone Data

Name: SEAN

20 Apr 2010 00:00 UTC to 29 Apr 2010 12:00 UTC

    date/time    lat    long     hPa   cat  kts
2010-04-20 00    9.7   117.5    1010         15          
2010-04-20 06    9.8   117.3    1010         15          
2010-04-20 12    9.9   117.1    1004         25          
2010-04-20 18   10.0   116.9    1004         25          
2010-04-21 00   10.1   116.8    1004         25          
2010-04-21 06   10.2   116.7    1004         25          
2010-04-21 12   10.8   116.7    1004         25          
2010-04-21 18   11.6   116.6    1000         30          
2010-04-22 00   12.0   115.9    1000         30          
2010-04-22 06   12.4   115.5    1000         30          
2010-04-22 12   12.8   115.1     996         35          
2010-04-22 18   13.2   114.6     993    1    40          
2010-04-23 00   13.6   114.1     989    1    45          
2010-04-23 06   14.1   113.8     985    1    50          
2010-04-23 12   14.7   113.5     982    2    55          
2010-04-23 18   15.3   113.1     978    2    60          
2010-04-23 18   15.3   113.1     978    2    60          
2010-04-24 00   16.0   113.0     982    2    55          
2010-04-24 00   16.0   113.0     982    2    55          
2010-04-24 06   16.8   112.8     982    2    55          
2010-04-24 06   16.8   112.8     982    2    55          
2010-04-24 12   17.3   112.4     982    2    55          
2010-04-24 18   17.5   111.9     985    1    50          
2010-04-25 00   17.6   111.3     989    1    45          
2010-04-25 06   18.1   110.6     996         35          
2010-04-25 12   18.6   109.8     998         30          
2010-04-25 18   18.5   108.9    1004         25          
2010-04-26 00   18.3   107.3    1004         25          
2010-04-26 06   18.1   105.5    1004         25          
2010-04-26 12   18.5   103.1    1007         20          
2010-04-26 18   18.7   100.8    1007         20          
2010-04-27 00   18.8    99.2    1007         20          
2010-04-27 06   18.8    97.6    1007         20          
2010-04-27 12   19.1    95.9    1007         20          
2010-04-27 18   19.1    94.3    1007         20          
2010-04-28 00   19.1    93.2    1007         20          
2010-04-28 06   18.9    92.1    1007         20          
2010-04-28 12   18.1    90.9    1007         20          
2010-04-28 18   17.5    90.1    1010         15          
2010-04-29 00   17.3    89.3    1010         15          
2010-04-29 06   16.7    88.4    1010         15          
2010-04-29 12   16.1    86.9    1010         15          
Winds are 1-min average.

Tropical cyclone tracks developed by Michael Bath using data from the Joint Typhoon Warning Centre Best Tracks and Google Maps.


[Australian Severe Weather index] [Copyright Notice] [Email Contacts] [Search This Site] [Privacy Policy]
Document: tropical_cyclone_sean.htm Updated: 28 June 2017